sensor_id;sensor_type;location;lat;lon;timestamp;pressure;altitude;pressure_sealevel;temperature;humidity
44531;BME280;30240;47.418;0.700;2022-07-06T00:00:59;101358.79516601562;;;16.55;65.18
44531;BME280;30240;47.418;0.700;2022-07-06T00:03:24;101352.69775390625;;;16.62;65.15
44531;BME280;30240;47.418;0.700;2022-07-06T00:05:49;101354.9072265625;;;16.54;65.43
44531;BME280;30240;47.418;0.700;2022-07-06T00:08:14;101360.94360351562;;;16.43;65.77
44531;BME280;30240;47.418;0.700;2022-07-06T00:10:39;101359.90600585938;;;16.41;65.99
44531;BME280;30240;47.418;0.700;2022-07-06T00:13:04;101359.90600585938;;;16.41;65.99
44531;BME280;30240;47.418;0.700;2022-07-06T00:15:29;101361.70043945312;;;16.31;66.38
44531;BME280;30240;47.418;0.700;2022-07-06T00:17:54;101362.13989257812;;;16.33;66.4
44531;BME280;30240;47.418;0.700;2022-07-06T00:20:19;101375.33569335938;;;16.28;66.78
44531;BME280;30240;47.418;0.700;2022-07-06T00:22:44;101381.70166015625;;;16.24;67.12
44531;BME280;30240;47.418;0.700;2022-07-06T00:25:09;101381.70166015625;;;16.24;67.12
44531;BME280;30240;47.418;0.700;2022-07-06T00:27:38;101383.61206054688;;;16.2;67.14
44531;BME280;30240;47.418;0.700;2022-07-06T00:30:01;101379.04663085938;;;16.14;67.52
44531;BME280;30240;47.418;0.700;2022-07-06T00:32:25;101378.2958984375;;;16.2;67.59
44531;BME280;30240;47.418;0.700;2022-07-06T00:34:51;101374.072265625;;;16.06;67.82
44531;BME280;30240;47.418;0.700;2022-07-06T00:37:21;101374.072265625;;;16.06;67.82
44531;BME280;30240;47.418;0.700;2022-07-06T00:39:43;101372.607421875;;;16.01;68.37
44531;BME280;30240;47.418;0.700;2022-07-06T00:42:06;101372.16186523438;;;15.98;68.38
44531;BME280;30240;47.418;0.700;2022-07-06T00:44:29;101372.54028320312;;;15.93;68.57
44531;BME280;30240;47.418;0.700;2022-07-06T00:46:54;101372.22900390625;;;15.99;68.64
44531;BME280;30240;47.418;0.700;2022-07-06T00:49:19;101372.22900390625;;;15.99;68.64
44531;BME280;30240;47.418;0.700;2022-07-06T00:51:44;101371.36840820312;;;15.91;68.89
44531;BME280;30240;47.418;0.700;2022-07-06T00:54:09;101368.27392578125;;;15.85;69.17
44531;BME280;30240;47.418;0.700;2022-07-06T00:56:34;101360.498046875;;;15.81;69.34
44531;BME280;30240;47.418;0.700;2022-07-06T00:59:00;101365.9912109375;;;15.82;69.23
44531;BME280;30240;47.418;0.700;2022-07-06T01:01:24;101370.98388671875;;;15.79;69.41
44531;BME280;30240;47.418;0.700;2022-07-06T01:03:49;101370.98388671875;;;15.79;69.41
44531;BME280;30240;47.418;0.700;2022-07-06T01:06:14;101371.39282226562;;;15.72;69.72
44531;BME280;30240;47.418;0.700;2022-07-06T01:08:39;101374.18823242188;;;15.65;69.85
44531;BME280;30240;47.418;0.700;2022-07-06T01:11:04;101375.55541992188;;;15.77;69.95
44531;BME280;30240;47.418;0.700;2022-07-06T01:13:30;101375.68969726562;;;15.64;70.17
44531;BME280;30240;47.418;0.700;2022-07-06T01:15:54;101375.68969726562;;;15.64;70.17
44531;BME280;30240;47.418;0.700;2022-07-06T01:18:19;101376.220703125;;;15.57;70.44
44531;BME280;30240;47.418;0.700;2022-07-06T01:20:44;101366.11938476562;;;15.51;70.64
44531;BME280;30240;47.418;0.700;2022-07-06T01:23:09;101374.29809570312;;;15.5;70.73
44531;BME280;30240;47.418;0.700;2022-07-06T01:25:34;101373.07739257812;;;15.49;71.11
44531;BME280;30240;47.418;0.700;2022-07-06T01:27:59;101373.07739257812;;;15.49;71.11
44531;BME280;30240;47.418;0.700;2022-07-06T01:30:24;101368.1396484375;;;15.43;71.48
44531;BME280;30240;47.418;0.700;2022-07-06T01:32:50;101362.53051757812;;;15.4;71.21
44531;BME280;30240;47.418;0.700;2022-07-06T01:35:15;101367.87719726562;;;15.4;71.35
44531;BME280;30240;47.418;0.700;2022-07-06T01:37:39;101370.17211914062;;;15.42;71.38
44531;BME280;30240;47.418;0.700;2022-07-06T01:40:05;101370.17211914062;;;15.42;71.38
44531;BME280;30240;47.418;0.700;2022-07-06T01:42:29;101378.07006835938;;;15.32;71.7
44531;BME280;30240;47.418;0.700;2022-07-06T01:44:54;101378.0029296875;;;15.22;72.29
44531;BME280;30240;47.418;0.700;2022-07-06T01:47:19;101377.59399414062;;;15.2;72.13
44531;BME280;30240;47.418;0.700;2022-07-06T01:49:44;101377.28271484375;;;15.19;72.52
44531;BME280;30240;47.418;0.700;2022-07-06T01:52:10;101377.28271484375;;;15.19;72.52
44531;BME280;30240;47.418;0.700;2022-07-06T01:54:34;101380.01708984375;;;15.18;72.55
44531;BME280;30240;47.418;0.700;2022-07-06T01:56:59;101376.06201171875;;;15.09;72.71
44531;BME280;30240;47.418;0.700;2022-07-06T01:59:24;101373.71826171875;;;15.08;73.05
44531;BME280;30240;47.418;0.700;2022-07-06T02:01:49;101374.57885742188;;;15.12;72.8
44531;BME280;30240;47.418;0.700;2022-07-06T02:04:14;101374.57885742188;;;15.12;72.8
44531;BME280;30240;47.418;0.700;2022-07-06T02:06:39;101376.03149414062;;;15.05;73.24
44531;BME280;30240;47.418;0.700;2022-07-06T02:09:04;101372.84545898438;;;14.98;73.26
44531;BME280;30240;47.418;0.700;2022-07-06T02:11:29;101370.59936523438;;;14.91;73.5
44531;BME280;30240;47.418;0.700;2022-07-06T02:13:54;101373.12622070312;;;14.87;73.7
44531;BME280;30240;47.418;0.700;2022-07-06T02:16:19;101373.12622070312;;;14.87;73.7
44531;BME280;30240;47.418;0.700;2022-07-06T02:18:44;101371.875;;;14.87;73.9
44531;BME280;30240;47.418;0.700;2022-07-06T02:21:09;101365.06958007812;;;14.81;74.03
44531;BME280;30240;47.418;0.700;2022-07-06T02:23:34;101361.43798828125;;;14.78;74.17
44531;BME280;30240;47.418;0.700;2022-07-06T02:25:59;101365.51513671875;;;14.7;74.33
44531;BME280;30240;47.418;0.700;2022-07-06T02:28:24;101365.51513671875;;;14.7;74.33
44531;BME280;30240;47.418;0.700;2022-07-06T02:30:51;101361.70043945312;;;14.77;74.41
44531;BME280;30240;47.418;0.700;2022-07-06T02:33:19;101352.64892578125;;;14.73;74.34
44531;BME280;30240;47.418;0.700;2022-07-06T02:35:40;101360.80322265625;;;14.77;74.15
44531;BME280;30240;47.418;0.700;2022-07-06T02:38:06;101359.6923828125;;;14.7;74.53
44531;BME280;30240;47.418;0.700;2022-07-06T02:40:33;101356.84204101562;;;14.63;74.75
44531;BME280;30240;47.418;0.700;2022-07-06T02:42:57;101356.84204101562;;;14.63;74.75
44531;BME280;30240;47.418;0.700;2022-07-06T02:45:19;101362.35961914062;;;14.55;75.01
44531;BME280;30240;47.418;0.700;2022-07-06T02:47:44;101360.52856445312;;;14.55;75.01
44531;BME280;30240;47.418;0.700;2022-07-06T02:50:09;101368.02978515625;;;14.57;75.1
44531;BME280;30240;47.418;0.700;2022-07-06T02:52:34;101364.6728515625;;;14.53;75.18
44531;BME280;30240;47.418;0.700;2022-07-06T02:54:59;101364.6728515625;;;14.53;75.18
44531;BME280;30240;47.418;0.700;2022-07-06T02:57:24;101362.75024414062;;;14.43;75.45
44531;BME280;30240;47.418;0.700;2022-07-06T02:59:49;101360.21728515625;;;14.4;75.47
44531;BME280;30240;47.418;0.700;2022-07-06T03:02:14;101360.6201171875;;;14.37;75.76
44531;BME280;30240;47.418;0.700;2022-07-06T03:04:39;101362.21923828125;;;14.4;75.67
44531;BME280;30240;47.418;0.700;2022-07-06T03:07:04;101362.21923828125;;;14.4;75.67
44531;BME280;30240;47.418;0.700;2022-07-06T03:09:29;101365.48461914062;;;14.29;75.85
44531;BME280;30240;47.418;0.700;2022-07-06T03:11:54;101363.0615234375;;;14.22;75.79
44531;BME280;30240;47.418;0.700;2022-07-06T03:14:19;101358.56323242188;;;14.29;75.68
44531;BME280;30240;47.418;0.700;2022-07-06T03:16:44;101362.73193359375;;;14.21;75.92
44531;BME280;30240;47.418;0.700;2022-07-06T03:19:09;101362.73193359375;;;14.21;75.92
44531;BME280;30240;47.418;0.700;2022-07-06T03:21:34;101356.82983398438;;;14.21;75.92
44531;BME280;30240;47.418;0.700;2022-07-06T03:23:59;101363.78784179688;;;14.21;75.92
44531;BME280;30240;47.418;0.700;2022-07-06T03:26:24;101365.78979492188;;;14.12;76.15
44531;BME280;30240;47.418;0.700;2022-07-06T03:28:49;101366.20483398438;;;14.08;76.24
44531;BME280;30240;47.418;0.700;2022-07-06T03:31:14;101366.20483398438;;;14.08;76.24
44531;BME280;30240;47.418;0.700;2022-07-06T03:33:39;101366.796875;;;14.08;76.2
44531;BME280;30240;47.418;0.700;2022-07-06T03:36:04;101378.79638671875;;;14.15;76.06
44531;BME280;30240;47.418;0.700;2022-07-06T03:38:29;101380.52978515625;;;14.08;76.17
44531;BME280;30240;47.418;0.700;2022-07-06T03:40:54;101383.17260742188;;;14.04;76.39
44531;BME280;30240;47.418;0.700;2022-07-06T03:43:19;101383.17260742188;;;14.04;76.39
44531;BME280;30240;47.418;0.700;2022-07-06T03:45:44;101385.43701171875;;;14.04;76.4
44531;BME280;30240;47.418;0.700;2022-07-06T03:48:09;101379.76684570312;;;13.95;76.72
44531;BME280;30240;47.418;0.700;2022-07-06T03:50:34;101378.26538085938;;;14.01;76.69
44531;BME280;30240;47.418;0.700;2022-07-06T03:52:59;101377.23999023438;;;14.0;76.92
44531;BME280;30240;47.418;0.700;2022-07-06T03:55:24;101377.23999023438;;;14.0;76.92
44531;BME280;30240;47.418;0.700;2022-07-06T03:57:49;101372.84545898438;;;13.93;77.0
44531;BME280;30240;47.418;0.700;2022-07-06T04:00:14;101370.0439453125;;;13.88;77.07
44531;BME280;30240;47.418;0.700;2022-07-06T04:02:39;101373.01635742188;;;13.83;77.42
44531;BME280;30240;47.418;0.700;2022-07-06T04:05:04;101379.76684570312;;;13.81;77.4
44531;BME280;30240;47.418;0.700;2022-07-06T04:07:29;101378.96728515625;;;13.88;77.01
44531;BME280;30240;47.418;0.700;2022-07-06T04:09:54;101378.96728515625;;;13.88;77.01
44531;BME280;30240;47.418;0.700;2022-07-06T04:12:19;101384.53369140625;;;13.87;77.41
44531;BME280;30240;47.418;0.700;2022-07-06T04:14:44;101385.2294921875;;;13.83;77.47
44531;BME280;30240;47.418;0.700;2022-07-06T04:17:09;101385.63232421875;;;13.78;77.53
44531;BME280;30240;47.418;0.700;2022-07-06T04:19:34;101394.0185546875;;;13.83;77.6
44531;BME280;30240;47.418;0.700;2022-07-06T04:21:59;101394.0185546875;;;13.83;77.6
44531;BME280;30240;47.418;0.700;2022-07-06T04:24:23;101391.1865234375;;;13.94;77.19
44531;BME280;30240;47.418;0.700;2022-07-06T04:26:49;101395.34912109375;;;13.81;77.63
44531;BME280;30240;47.418;0.700;2022-07-06T04:29:14;101393.82934570312;;;13.9;77.55
44531;BME280;30240;47.418;0.700;2022-07-06T04:31:39;101395.11108398438;;;13.84;77.72
44531;BME280;30240;47.418;0.700;2022-07-06T04:34:03;101395.11108398438;;;13.84;77.72
44531;BME280;30240;47.418;0.700;2022-07-06T04:36:29;101400.48217773438;;;13.81;77.78
44531;BME280;30240;47.418;0.700;2022-07-06T04:38:53;101403.08837890625;;;13.88;77.81
44531;BME280;30240;47.418;0.700;2022-07-06T04:41:18;101401.48315429688;;;13.9;77.76
44531;BME280;30240;47.418;0.700;2022-07-06T04:43:43;101404.0771484375;;;13.87;77.96
44531;BME280;30240;47.418;0.700;2022-07-06T04:46:09;101404.0771484375;;;13.87;77.96
44531;BME280;30240;47.418;0.700;2022-07-06T04:48:33;101404.3701171875;;;13.93;77.67
44531;BME280;30240;47.418;0.700;2022-07-06T04:50:58;101408.4716796875;;;14.08;77.66
44531;BME280;30240;47.418;0.700;2022-07-06T04:53:23;101406.57958984375;;;14.07;77.32
44531;BME280;30240;47.418;0.700;2022-07-06T04:55:48;101408.28857421875;;;13.97;77.94
44531;BME280;30240;47.418;0.700;2022-07-06T04:58:13;101408.28857421875;;;13.97;77.94
44531;BME280;30240;47.418;0.700;2022-07-06T05:00:38;101408.12377929688;;;14.01;77.48
44531;BME280;30240;47.418;0.700;2022-07-06T05:03:03;101413.58642578125;;;14.22;77.06
44531;BME280;30240;47.418;0.700;2022-07-06T05:05:28;101405.40771484375;;;14.15;77.27
44531;BME280;30240;47.418;0.700;2022-07-06T05:07:53;101409.07592773438;;;14.25;77.18
44531;BME280;30240;47.418;0.700;2022-07-06T05:10:19;101409.07592773438;;;14.25;77.18
44531;BME280;30240;47.418;0.700;2022-07-06T05:12:43;101410.2294921875;;;14.18;77.29
44531;BME280;30240;47.418;0.700;2022-07-06T05:15:09;101405.27954101562;;;14.32;77.11
44531;BME280;30240;47.418;0.700;2022-07-06T05:17:34;101405.19409179688;;;14.4;76.63
44531;BME280;30240;47.418;0.700;2022-07-06T05:19:59;101397.07641601562;;;14.57;76.4
44531;BME280;30240;47.418;0.700;2022-07-06T05:22:24;101397.07641601562;;;14.57;76.4
44531;BME280;30240;47.418;0.700;2022-07-06T05:24:48;101397.7783203125;;;14.64;75.93
44531;BME280;30240;47.418;0.700;2022-07-06T05:27:13;101393.98193359375;;;14.59;76.14
44531;BME280;30240;47.418;0.700;2022-07-06T05:29:39;101397.90649414062;;;14.81;75.73
44531;BME280;30240;47.418;0.700;2022-07-06T05:32:04;101396.337890625;;;14.84;75.21
44531;BME280;30240;47.418;0.700;2022-07-06T05:34:28;101396.337890625;;;14.84;75.21
44531;BME280;30240;47.418;0.700;2022-07-06T05:36:53;101397.17407226562;;;14.89;74.91
44531;BME280;30240;47.418;0.700;2022-07-06T05:39:19;101395.29418945312;;;15.12;74.44
44531;BME280;30240;47.418;0.700;2022-07-06T05:41:43;101398.10791015625;;;15.06;74.53
44531;BME280;30240;47.418;0.700;2022-07-06T05:44:08;101395.166015625;;;15.15;74.05
44531;BME280;30240;47.418;0.700;2022-07-06T05:46:33;101397.17407226562;;;15.39;74.04
44531;BME280;30240;47.418;0.700;2022-07-06T05:48:58;101397.17407226562;;;15.39;74.04
44531;BME280;30240;47.418;0.700;2022-07-06T05:51:24;101397.24731445312;;;15.43;72.99
44531;BME280;30240;47.418;0.700;2022-07-06T05:53:48;101398.779296875;;;15.5;73.28
44531;BME280;30240;47.418;0.700;2022-07-06T05:56:14;101406.77490234375;;;15.61;72.75
44531;BME280;30240;47.418;0.700;2022-07-06T05:58:39;101414.70336914062;;;15.74;72.22
44531;BME280;30240;47.418;0.700;2022-07-06T06:01:03;101414.70336914062;;;15.74;72.22
44531;BME280;30240;47.418;0.700;2022-07-06T06:03:28;101419.81201171875;;;15.81;71.91
44531;BME280;30240;47.418;0.700;2022-07-06T06:05:53;101411.376953125;;;15.86;71.47
44531;BME280;30240;47.418;0.700;2022-07-06T06:08:19;101414.53857421875;;;15.95;71.56
44531;BME280;30240;47.418;0.700;2022-07-06T06:10:43;101414.82543945312;;;16.02;70.95
44531;BME280;30240;47.418;0.700;2022-07-06T06:13:08;101414.82543945312;;;16.02;70.95
44531;BME280;30240;47.418;0.700;2022-07-06T06:15:34;101411.9384765625;;;16.41;69.31
44531;BME280;30240;47.418;0.700;2022-07-06T06:17:58;101408.00170898438;;;16.85;68.08
44531;BME280;30240;47.418;0.700;2022-07-06T06:20:23;101407.1533203125;;;17.31;65.89
44531;BME280;30240;47.418;0.700;2022-07-06T06:22:50;101407.421875;;;18.42;62.71
44531;BME280;30240;47.418;0.700;2022-07-06T06:25:14;101407.421875;;;18.42;62.71
44531;BME280;30240;47.418;0.700;2022-07-06T06:27:39;101407.470703125;;;18.98;60.93
44531;BME280;30240;47.418;0.700;2022-07-06T06:30:04;101407.17163085938;;;18.86;60.88
44531;BME280;30240;47.418;0.700;2022-07-06T06:32:28;101399.83520507812;;;19.36;59.41
44531;BME280;30240;47.418;0.700;2022-07-06T06:34:53;101402.26440429688;;;19.33;59.06
44531;BME280;30240;47.418;0.700;2022-07-06T06:37:18;101402.26440429688;;;19.33;59.06
44531;BME280;30240;47.418;0.700;2022-07-06T06:39:43;101403.82690429688;;;19.29;58.94
44531;BME280;30240;47.418;0.700;2022-07-06T06:42:08;101405.029296875;;;19.28;59.11
44531;BME280;30240;47.418;0.700;2022-07-06T06:44:33;101411.60888671875;;;19.6;58.23
44531;BME280;30240;47.418;0.700;2022-07-06T06:46:58;101419.91577148438;;;20.09;56.63
44531;BME280;30240;47.418;0.700;2022-07-06T06:49:23;101419.91577148438;;;20.09;56.63
44531;BME280;30240;47.418;0.700;2022-07-06T06:51:49;101414.65454101562;;;19.78;57.52
44531;BME280;30240;47.418;0.700;2022-07-06T06:54:13;101416.12548828125;;;20.99;54.12
44531;BME280;30240;47.418;0.700;2022-07-06T06:56:38;101417.38891601562;;;21.02;54.06
44531;BME280;30240;47.418;0.700;2022-07-06T06:59:03;101423.7060546875;;;20.05;56.47
44531;BME280;30240;47.418;0.700;2022-07-06T07:01:28;101423.7060546875;;;20.05;56.47
44531;BME280;30240;47.418;0.700;2022-07-06T07:03:54;101431.3720703125;;;20.54;55.0
44531;BME280;30240;47.418;0.700;2022-07-06T07:06:18;101423.6328125;;;20.64;54.88
44531;BME280;30240;47.418;0.700;2022-07-06T07:08:43;101427.74047851562;;;20.54;54.83
44531;BME280;30240;47.418;0.700;2022-07-06T07:11:09;101424.79858398438;;;20.84;54.34
44531;BME280;30240;47.418;0.700;2022-07-06T07:13:33;101421.76513671875;;;21.3;53.77
44531;BME280;30240;47.418;0.700;2022-07-06T07:15:59;101421.76513671875;;;21.3;53.77
44531;BME280;30240;47.418;0.700;2022-07-06T07:18:23;101421.09375;;;22.31;51.69
44531;BME280;30240;47.418;0.700;2022-07-06T07:20:48;101423.388671875;;;21.88;52.01
44531;BME280;30240;47.418;0.700;2022-07-06T07:23:13;101423.96850585938;;;22.58;50.75
44531;BME280;30240;47.418;0.700;2022-07-06T07:25:38;101418.310546875;;;21.97;51.42
44531;BME280;30240;47.418;0.700;2022-07-06T07:28:04;101418.310546875;;;21.97;51.42
44531;BME280;30240;47.418;0.700;2022-07-06T07:30:28;101420.703125;;;21.9;51.1
44531;BME280;30240;47.418;0.700;2022-07-06T07:32:54;101417.68798828125;;;22.72;49.26
44531;BME280;30240;47.418;0.700;2022-07-06T07:35:19;101419.81201171875;;;22.18;49.9
44531;BME280;30240;47.418;0.700;2022-07-06T07:37:43;101415.35034179688;;;22.43;50.33
44531;BME280;30240;47.418;0.700;2022-07-06T07:40:09;101415.35034179688;;;22.43;50.33
44531;BME280;30240;47.418;0.700;2022-07-06T07:42:33;101419.7509765625;;;22.4;49.76
44531;BME280;30240;47.418;0.700;2022-07-06T07:44:58;101423.10791015625;;;22.76;49.3
44531;BME280;30240;47.418;0.700;2022-07-06T07:47:23;101417.27905273438;;;23.07;48.92
44531;BME280;30240;47.418;0.700;2022-07-06T07:49:48;101415.37475585938;;;22.72;48.87
44531;BME280;30240;47.418;0.700;2022-07-06T07:52:15;101415.37475585938;;;22.72;48.87
44531;BME280;30240;47.418;0.700;2022-07-06T07:54:39;101419.9462890625;;;22.58;48.97
44531;BME280;30240;47.418;0.700;2022-07-06T07:57:04;101417.21801757812;;;23.38;47.61
44531;BME280;30240;47.418;0.700;2022-07-06T07:59:28;101417.66967773438;;;22.72;47.99
44531;BME280;30240;47.418;0.700;2022-07-06T08:01:54;101415.43579101562;;;22.55;48.68
44531;BME280;30240;47.418;0.700;2022-07-06T08:04:19;101415.43579101562;;;22.55;48.68
44531;BME280;30240;47.418;0.700;2022-07-06T08:06:43;101414.20288085938;;;22.94;47.88
44531;BME280;30240;47.418;0.700;2022-07-06T08:09:08;101412.64038085938;;;23.03;47.69
44531;BME280;30240;47.418;0.700;2022-07-06T08:11:34;101404.1748046875;;;23.22;47.08
44531;BME280;30240;47.418;0.700;2022-07-06T08:13:58;101404.88891601562;;;23.52;45.83
44531;BME280;30240;47.418;0.700;2022-07-06T08:16:23;101404.88891601562;;;23.52;45.83
44531;BME280;30240;47.418;0.700;2022-07-06T08:18:48;101408.2275390625;;;23.84;45.5
44531;BME280;30240;47.418;0.700;2022-07-06T08:21:13;101402.5146484375;;;23.11;46.85
44531;BME280;30240;47.418;0.700;2022-07-06T08:23:38;101404.35791015625;;;24.25;45.1
44531;BME280;30240;47.418;0.700;2022-07-06T08:26:03;101403.76586914062;;;24.0;46.16
44531;BME280;30240;47.418;0.700;2022-07-06T08:28:29;101403.76586914062;;;24.0;46.16
44531;BME280;30240;47.418;0.700;2022-07-06T08:30:53;101406.8115234375;;;24.21;45.05
44531;BME280;30240;47.418;0.700;2022-07-06T08:33:18;101411.71875;;;24.52;44.65
44531;BME280;30240;47.418;0.700;2022-07-06T08:35:43;101409.21630859375;;;24.56;45.23
44531;BME280;30240;47.418;0.700;2022-07-06T08:38:08;101412.72583007812;;;25.18;43.49
44531;BME280;30240;47.418;0.700;2022-07-06T08:40:34;101411.70043945312;;;25.57;42.76
44531;BME280;30240;47.418;0.700;2022-07-06T08:42:59;101411.70043945312;;;25.57;42.76
44531;BME280;30240;47.418;0.700;2022-07-06T08:45:25;101408.96606445312;;;24.92;43.06
44531;BME280;30240;47.418;0.700;2022-07-06T08:47:49;101409.2529296875;;;24.92;43.81
44531;BME280;30240;47.418;0.700;2022-07-06T08:50:14;101403.60717773438;;;25.12;42.29
44531;BME280;30240;47.418;0.700;2022-07-06T08:52:38;101407.01293945312;;;25.98;41.57
44531;BME280;30240;47.418;0.700;2022-07-06T08:55:04;101407.01293945312;;;25.98;41.57
44531;BME280;30240;47.418;0.700;2022-07-06T08:57:28;101407.2021484375;;;25.61;41.86
44531;BME280;30240;47.418;0.700;2022-07-06T08:59:54;101406.82983398438;;;25.01;43.12
44531;BME280;30240;47.418;0.700;2022-07-06T09:02:19;101408.642578125;;;25.45;42.6
44531;BME280;30240;47.418;0.700;2022-07-06T09:04:44;101408.6669921875;;;25.57;42.49
44531;BME280;30240;47.418;0.700;2022-07-06T09:07:08;101408.6669921875;;;25.57;42.49
44531;BME280;30240;47.418;0.700;2022-07-06T09:09:36;101408.00170898438;;;25.69;41.74
44531;BME280;30240;47.418;0.700;2022-07-06T09:11:59;101413.78173828125;;;25.92;41.47
44531;BME280;30240;47.418;0.700;2022-07-06T09:14:24;101417.16918945312;;;25.4;42.63
44531;BME280;30240;47.418;0.700;2022-07-06T09:16:51;101418.19458007812;;;25.75;41.18
44531;BME280;30240;47.418;0.700;2022-07-06T09:19:13;101418.19458007812;;;25.75;41.18
44531;BME280;30240;47.418;0.700;2022-07-06T09:21:39;101423.974609375;;;25.77;41.2
44531;BME280;30240;47.418;0.700;2022-07-06T09:24:06;101430.40771484375;;;26.12;40.74
44531;BME280;30240;47.418;0.700;2022-07-06T09:26:28;101436.38916015625;;;25.36;41.43
44531;BME280;30240;47.418;0.700;2022-07-06T09:28:55;101434.26513671875;;;25.49;41.3
44531;BME280;30240;47.418;0.700;2022-07-06T09:31:18;101434.26513671875;;;25.49;41.3
44531;BME280;30240;47.418;0.700;2022-07-06T09:33:54;101426.8798828125;;;26.01;40.75
44531;BME280;30240;47.418;0.700;2022-07-06T09:36:08;101414.98413085938;;;25.67;41.25
44531;BME280;30240;47.418;0.700;2022-07-06T09:38:33;101424.57885742188;;;25.99;40.47
44531;BME280;30240;47.418;0.700;2022-07-06T09:40:58;101421.15478515625;;;26.04;39.32
44531;BME280;30240;47.418;0.700;2022-07-06T09:43:24;101421.15478515625;;;26.04;39.32
44531;BME280;30240;47.418;0.700;2022-07-06T09:45:50;101423.61450195312;;;27.38;38.12
44531;BME280;30240;47.418;0.700;2022-07-06T09:48:15;101419.73266601562;;;27.09;39.39
44531;BME280;30240;47.418;0.700;2022-07-06T09:50:40;101421.12426757812;;;27.37;37.82
44531;BME280;30240;47.418;0.700;2022-07-06T09:53:03;101419.72045898438;;;26.54;39.31
44531;BME280;30240;47.418;0.700;2022-07-06T09:55:29;101419.72045898438;;;26.54;39.31
44531;BME280;30240;47.418;0.700;2022-07-06T09:57:54;101422.57080078125;;;27.27;37.92
44531;BME280;30240;47.418;0.700;2022-07-06T10:00:18;101418.69506835938;;;27.5;36.75
44531;BME280;30240;47.418;0.700;2022-07-06T10:02:44;101425.6103515625;;;26.98;36.45
44531;BME280;30240;47.418;0.700;2022-07-06T10:05:09;101426.70288085938;;;26.74;36.59
44531;BME280;30240;47.418;0.700;2022-07-06T10:07:33;101426.70288085938;;;26.74;36.59
44531;BME280;30240;47.418;0.700;2022-07-06T10:09:58;101426.98364257812;;;26.68;37.54
44531;BME280;30240;47.418;0.700;2022-07-06T10:12:24;101423.76708984375;;;27.58;35.99
44531;BME280;30240;47.418;0.700;2022-07-06T10:14:49;101422.265625;;;26.98;36.46
44531;BME280;30240;47.418;0.700;2022-07-06T10:17:15;101424.21875;;;27.96;35.82
44531;BME280;30240;47.418;0.700;2022-07-06T10:19:39;101418.46923828125;;;27.71;35.68
44531;BME280;30240;47.418;0.700;2022-07-06T10:22:04;101418.46923828125;;;27.71;35.68
44531;BME280;30240;47.418;0.700;2022-07-06T10:24:29;101410.85205078125;;;26.98;36.99
44531;BME280;30240;47.418;0.700;2022-07-06T10:26:54;101422.0947265625;;;26.94;36.66
44531;BME280;30240;47.418;0.700;2022-07-06T10:29:23;101424.267578125;;;26.75;37.34
44531;BME280;30240;47.418;0.700;2022-07-06T10:31:45;101413.18969726562;;;27.84;35.31
44531;BME280;30240;47.418;0.700;2022-07-06T10:34:11;101413.18969726562;;;27.84;35.31
44531;BME280;30240;47.418;0.700;2022-07-06T10:36:37;101416.73583984375;;;26.67;36.96
44531;BME280;30240;47.418;0.700;2022-07-06T10:38:59;101416.43676757812;;;27.71;35.51
44531;BME280;30240;47.418;0.700;2022-07-06T10:41:33;101416.12548828125;;;26.85;37.63
44531;BME280;30240;47.418;0.700;2022-07-06T10:43:49;101416.26586914062;;;26.85;37.91
44531;BME280;30240;47.418;0.700;2022-07-06T10:46:15;101416.26586914062;;;26.85;37.91
44531;BME280;30240;47.418;0.700;2022-07-06T10:48:39;101415.56396484375;;;27.68;35.87
44531;BME280;30240;47.418;0.700;2022-07-06T10:51:04;101423.1689453125;;;27.93;36.0
44531;BME280;30240;47.418;0.700;2022-07-06T10:53:30;101421.76513671875;;;28.3;35.56
44531;BME280;30240;47.418;0.700;2022-07-06T10:55:55;101423.54736328125;;;28.14;35.07
44531;BME280;30240;47.418;0.700;2022-07-06T10:58:36;101423.54736328125;;;28.14;35.07
44531;BME280;30240;47.418;0.700;2022-07-06T11:00:48;101421.56982421875;;;29.21;33.4
44531;BME280;30240;47.418;0.700;2022-07-06T11:03:33;101417.4072265625;;;28.4;35.17
44531;BME280;30240;47.418;0.700;2022-07-06T11:05:43;101418.798828125;;;29.41;33.36
44531;BME280;30240;47.418;0.700;2022-07-06T11:08:03;101409.04541015625;;;28.36;35.54
44531;BME280;30240;47.418;0.700;2022-07-06T11:10:24;101409.04541015625;;;28.36;35.54
44531;BME280;30240;47.418;0.700;2022-07-06T11:12:58;101415.59448242188;;;28.54;34.96
44531;BME280;30240;47.418;0.700;2022-07-06T11:15:46;101410.56518554688;;;27.64;36.8
44531;BME280;30240;47.418;0.700;2022-07-06T11:17:43;101401.42211914062;;;27.99;35.24
44531;BME280;30240;47.418;0.700;2022-07-06T11:20:08;101391.70532226562;;;28.56;34.42
44531;BME280;30240;47.418;0.700;2022-07-06T11:22:30;101391.70532226562;;;28.56;34.42